sensor_id;sensor_type;location;lat;lon;timestamp;P1;durP1;ratioP1;P2;durP2;ratioP2
5052;SDS011;2545;50.892;5.740;2023-07-13T00:00:20;5.00;;;2.07;;
5052;SDS011;2545;50.892;5.740;2023-07-13T00:02:47;10.13;;;2.17;;
5052;SDS011;2545;50.892;5.740;2023-07-13T00:05:12;5.33;;;2.20;;
5052;SDS011;2545;50.892;5.740;2023-07-13T00:07:38;7.13;;;2.27;;
5052;SDS011;2545;50.892;5.740;2023-07-13T00:10:03;9.23;;;2.13;;
5052;SDS011;2545;50.892;5.740;2023-07-13T00:12:30;11.07;;;2.43;;
5052;SDS011;2545;50.892;5.740;2023-07-13T00:14:58;8.37;;;2.03;;
5052;SDS011;2545;50.892;5.740;2023-07-13T00:17:25;8.43;;;2.40;;
5052;SDS011;2545;50.892;5.740;2023-07-13T00:19:51;10.97;;;2.37;;
5052;SDS011;2545;50.892;5.740;2023-07-13T00:22:17;12.30;;;3.70;;
5052;SDS011;2545;50.892;5.740;2023-07-13T00:24:43;9.27;;;2.73;;
5052;SDS011;2545;50.892;5.740;2023-07-13T00:27:09;10.23;;;2.60;;
5052;SDS011;2545;50.892;5.740;2023-07-13T00:29:35;9.43;;;3.03;;
5052;SDS011;2545;50.892;5.740;2023-07-13T00:32:03;4.13;;;2.43;;
5052;SDS011;2545;50.892;5.740;2023-07-13T00:34:30;8.13;;;2.90;;
5052;SDS011;2545;50.892;5.740;2023-07-13T00:36:56;10.00;;;2.70;;
5052;SDS011;2545;50.892;5.740;2023-07-13T00:39:22;10.80;;;2.10;;
5052;SDS011;2545;50.892;5.740;2023-07-13T00:41:48;5.07;;;2.73;;
5052;SDS011;2545;50.892;5.740;2023-07-13T00:44:14;7.80;;;2.60;;
5052;SDS011;2545;50.892;5.740;2023-07-13T00:46:40;11.10;;;3.03;;
5052;SDS011;2545;50.892;5.740;2023-07-13T00:49:06;6.73;;;2.30;;
5052;SDS011;2545;50.892;5.740;2023-07-13T00:54:29;7.00;;;2.20;;
5052;SDS011;2545;50.892;5.740;2023-07-13T00:56:59;7.83;;;2.40;;
5052;SDS011;2545;50.892;5.740;2023-07-13T00:59:28;10.47;;;2.60;;
5052;SDS011;2545;50.892;5.740;2023-07-13T01:01:54;10.00;;;2.37;;
5052;SDS011;2545;50.892;5.740;2023-07-13T01:04:20;9.80;;;2.13;;
5052;SDS011;2545;50.892;5.740;2023-07-13T01:06:45;4.43;;;2.30;;
5052;SDS011;2545;50.892;5.740;2023-07-13T01:09:12;13.50;;;2.50;;
5052;SDS011;2545;50.892;5.740;2023-07-13T01:11:38;8.53;;;2.50;;
5052;SDS011;2545;50.892;5.740;2023-07-13T01:14:06;13.93;;;3.13;;
5052;SDS011;2545;50.892;5.740;2023-07-13T01:16:33;7.30;;;2.30;;
5052;SDS011;2545;50.892;5.740;2023-07-13T01:19:00;9.60;;;2.20;;
5052;SDS011;2545;50.892;5.740;2023-07-13T01:21:28;16.57;;;2.37;;
5052;SDS011;2545;50.892;5.740;2023-07-13T01:23:55;7.23;;;3.10;;
5052;SDS011;2545;50.892;5.740;2023-07-13T01:26:20;6.93;;;2.57;;
5052;SDS011;2545;50.892;5.740;2023-07-13T01:28:46;5.60;;;2.07;;
5052;SDS011;2545;50.892;5.740;2023-07-13T01:31:11;5.70;;;2.03;;
5052;SDS011;2545;50.892;5.740;2023-07-13T01:33:38;11.83;;;2.87;;
5052;SDS011;2545;50.892;5.740;2023-07-13T01:36:06;6.40;;;2.57;;
5052;SDS011;2545;50.892;5.740;2023-07-13T01:38:32;6.50;;;2.03;;
5052;SDS011;2545;50.892;5.740;2023-07-13T01:40:58;7.10;;;2.40;;
5052;SDS011;2545;50.892;5.740;2023-07-13T01:43:24;10.87;;;2.50;;
5052;SDS011;2545;50.892;5.740;2023-07-13T01:45:50;7.67;;;2.63;;
5052;SDS011;2545;50.892;5.740;2023-07-13T01:48:15;6.30;;;2.40;;
5052;SDS011;2545;50.892;5.740;2023-07-13T01:50:41;8.57;;;2.50;;
5052;SDS011;2545;50.892;5.740;2023-07-13T01:53:06;9.57;;;2.20;;
5052;SDS011;2545;50.892;5.740;2023-07-13T01:55:33;11.53;;;2.60;;
5052;SDS011;2545;50.892;5.740;2023-07-13T01:57:59;15.03;;;2.70;;
5052;SDS011;2545;50.892;5.740;2023-07-13T02:00:24;9.83;;;2.93;;
5052;SDS011;2545;50.892;5.740;2023-07-13T02:02:50;11.20;;;2.80;;
5052;SDS011;2545;50.892;5.740;2023-07-13T02:05:15;8.73;;;3.13;;
5052;SDS011;2545;50.892;5.740;2023-07-13T02:07:41;11.40;;;2.87;;
5052;SDS011;2545;50.892;5.740;2023-07-13T02:10:07;13.97;;;3.23;;
5052;SDS011;2545;50.892;5.740;2023-07-13T02:12:33;7.90;;;2.47;;
5052;SDS011;2545;50.892;5.740;2023-07-13T02:14:59;6.40;;;2.37;;
5052;SDS011;2545;50.892;5.740;2023-07-13T02:17:25;5.90;;;2.90;;
5052;SDS011;2545;50.892;5.740;2023-07-13T02:19:51;18.27;;;2.70;;
5052;SDS011;2545;50.892;5.740;2023-07-13T02:22:16;9.27;;;2.60;;
5052;SDS011;2545;50.892;5.740;2023-07-13T02:24:42;4.43;;;2.67;;
5052;SDS011;2545;50.892;5.740;2023-07-13T02:27:07;12.67;;;2.87;;
5052;SDS011;2545;50.892;5.740;2023-07-13T02:29:33;6.23;;;2.80;;
5052;SDS011;2545;50.892;5.740;2023-07-13T02:31:58;8.87;;;2.80;;
5052;SDS011;2545;50.892;5.740;2023-07-13T02:34:23;13.50;;;3.03;;
5052;SDS011;2545;50.892;5.740;2023-07-13T02:36:49;10.80;;;3.40;;
5052;SDS011;2545;50.892;5.740;2023-07-13T02:39:14;12.77;;;3.20;;
5052;SDS011;2545;50.892;5.740;2023-07-13T02:41:40;11.03;;;4.00;;
5052;SDS011;2545;50.892;5.740;2023-07-13T02:44:05;8.30;;;2.80;;
5052;SDS011;2545;50.892;5.740;2023-07-13T02:46:33;11.07;;;3.63;;
5052;SDS011;2545;50.892;5.740;2023-07-13T02:49:00;7.30;;;3.00;;
5052;SDS011;2545;50.892;5.740;2023-07-13T02:51:25;8.60;;;2.77;;
5052;SDS011;2545;50.892;5.740;2023-07-13T02:53:51;11.93;;;3.40;;
5052;SDS011;2545;50.892;5.740;2023-07-13T02:56:17;8.03;;;3.83;;
5052;SDS011;2545;50.892;5.740;2023-07-13T02:58:44;12.27;;;3.50;;
5052;SDS011;2545;50.892;5.740;2023-07-13T03:01:10;10.87;;;2.93;;
5052;SDS011;2545;50.892;5.740;2023-07-13T03:03:36;9.80;;;3.07;;
5052;SDS011;2545;50.892;5.740;2023-07-13T03:06:02;9.37;;;3.17;;
5052;SDS011;2545;50.892;5.740;2023-07-13T03:08:30;10.03;;;3.60;;
5052;SDS011;2545;50.892;5.740;2023-07-13T03:10:59;9.23;;;3.10;;
5052;SDS011;2545;50.892;5.740;2023-07-13T03:13:36;5.30;;;3.07;;
5052;SDS011;2545;50.892;5.740;2023-07-13T03:16:02;16.70;;;3.33;;
5052;SDS011;2545;50.892;5.740;2023-07-13T03:18:28;9.67;;;3.80;;
5052;SDS011;2545;50.892;5.740;2023-07-13T03:20:54;7.50;;;3.50;;
5052;SDS011;2545;50.892;5.740;2023-07-13T03:23:20;10.00;;;3.63;;
5052;SDS011;2545;50.892;5.740;2023-07-13T03:25:46;15.00;;;3.30;;
5052;SDS011;2545;50.892;5.740;2023-07-13T03:28:13;15.40;;;3.93;;
5052;SDS011;2545;50.892;5.740;2023-07-13T03:30:39;9.63;;;3.20;;
5052;SDS011;2545;50.892;5.740;2023-07-13T03:33:05;9.50;;;3.40;;
5052;SDS011;2545;50.892;5.740;2023-07-13T03:35:30;12.60;;;4.30;;
5052;SDS011;2545;50.892;5.740;2023-07-13T03:37:57;9.80;;;3.40;;
5052;SDS011;2545;50.892;5.740;2023-07-13T03:40:24;11.77;;;3.47;;
5052;SDS011;2545;50.892;5.740;2023-07-13T03:42:51;14.57;;;3.93;;
5052;SDS011;2545;50.892;5.740;2023-07-13T03:45:16;13.70;;;4.03;;
5052;SDS011;2545;50.892;5.740;2023-07-13T03:47:42;11.23;;;3.53;;
5052;SDS011;2545;50.892;5.740;2023-07-13T03:50:08;8.17;;;3.33;;
5052;SDS011;2545;50.892;5.740;2023-07-13T03:52:33;16.47;;;3.60;;
5052;SDS011;2545;50.892;5.740;2023-07-13T03:54:59;12.93;;;4.17;;
5052;SDS011;2545;50.892;5.740;2023-07-13T03:57:25;12.20;;;3.40;;
5052;SDS011;2545;50.892;5.740;2023-07-13T03:59:51;8.63;;;3.27;;
5052;SDS011;2545;50.892;5.740;2023-07-13T04:02:16;11.43;;;3.60;;
5052;SDS011;2545;50.892;5.740;2023-07-13T04:04:42;19.73;;;4.10;;
5052;SDS011;2545;50.892;5.740;2023-07-13T04:07:08;13.90;;;4.20;;
5052;SDS011;2545;50.892;5.740;2023-07-13T04:09:34;8.07;;;3.23;;
5052;SDS011;2545;50.892;5.740;2023-07-13T04:11:59;11.00;;;3.57;;
5052;SDS011;2545;50.892;5.740;2023-07-13T04:14:25;8.90;;;3.90;;
5052;SDS011;2545;50.892;5.740;2023-07-13T04:16:50;8.73;;;3.40;;
5052;SDS011;2545;50.892;5.740;2023-07-13T04:19:16;14.83;;;3.93;;
5052;SDS011;2545;50.892;5.740;2023-07-13T04:21:41;11.90;;;3.20;;
5052;SDS011;2545;50.892;5.740;2023-07-13T04:24:07;9.40;;;4.00;;
5052;SDS011;2545;50.892;5.740;2023-07-13T04:26:32;18.00;;;3.83;;
5052;SDS011;2545;50.892;5.740;2023-07-13T04:29:01;13.20;;;4.07;;
5052;SDS011;2545;50.892;5.740;2023-07-13T04:31:28;12.33;;;3.37;;
5052;SDS011;2545;50.892;5.740;2023-07-13T04:33:53;9.23;;;3.40;;
5052;SDS011;2545;50.892;5.740;2023-07-13T04:36:19;7.80;;;3.93;;
5052;SDS011;2545;50.892;5.740;2023-07-13T04:38:44;22.23;;;3.83;;
5052;SDS011;2545;50.892;5.740;2023-07-13T04:41:10;11.37;;;3.80;;
5052;SDS011;2545;50.892;5.740;2023-07-13T04:43:35;9.50;;;3.80;;
5052;SDS011;2545;50.892;5.740;2023-07-13T04:46:05;10.83;;;3.20;;
5052;SDS011;2545;50.892;5.740;2023-07-13T04:48:32;12.40;;;3.50;;
5052;SDS011;2545;50.892;5.740;2023-07-13T04:50:58;14.53;;;4.10;;
5052;SDS011;2545;50.892;5.740;2023-07-13T04:53:24;13.30;;;3.53;;
5052;SDS011;2545;50.892;5.740;2023-07-13T04:55:50;14.63;;;4.20;;
5052;SDS011;2545;50.892;5.740;2023-07-13T04:58:16;13.37;;;3.27;;
5052;SDS011;2545;50.892;5.740;2023-07-13T05:00:41;10.97;;;3.60;;
5052;SDS011;2545;50.892;5.740;2023-07-13T05:03:07;8.40;;;3.43;;
5052;SDS011;2545;50.892;5.740;2023-07-13T05:05:32;11.03;;;4.00;;
5052;SDS011;2545;50.892;5.740;2023-07-13T05:07:58;19.60;;;3.27;;
5052;SDS011;2545;50.892;5.740;2023-07-13T05:10:24;8.17;;;3.87;;
5052;SDS011;2545;50.892;5.740;2023-07-13T05:12:50;9.57;;;3.53;;
5052;SDS011;2545;50.892;5.740;2023-07-13T05:15:16;8.40;;;2.83;;
5052;SDS011;2545;50.892;5.740;2023-07-13T05:17:45;7.77;;;3.47;;
5052;SDS011;2545;50.892;5.740;2023-07-13T05:20:11;13.00;;;3.67;;
5052;SDS011;2545;50.892;5.740;2023-07-13T05:22:36;9.80;;;3.50;;
5052;SDS011;2545;50.892;5.740;2023-07-13T05:25:05;18.97;;;3.50;;
5052;SDS011;2545;50.892;5.740;2023-07-13T05:27:32;16.83;;;3.77;;
5052;SDS011;2545;50.892;5.740;2023-07-13T05:29:57;7.77;;;3.30;;
5052;SDS011;2545;50.892;5.740;2023-07-13T05:32:23;10.53;;;3.97;;
5052;SDS011;2545;50.892;5.740;2023-07-13T05:34:48;11.03;;;3.13;;
5052;SDS011;2545;50.892;5.740;2023-07-13T05:37:14;7.57;;;3.17;;
5052;SDS011;2545;50.892;5.740;2023-07-13T05:39:39;9.00;;;3.13;;
5052;SDS011;2545;50.892;5.740;2023-07-13T05:42:05;15.27;;;3.80;;
5052;SDS011;2545;50.892;5.740;2023-07-13T05:44:31;14.33;;;3.60;;
5052;SDS011;2545;50.892;5.740;2023-07-13T05:46:56;14.40;;;3.67;;
5052;SDS011;2545;50.892;5.740;2023-07-13T05:49:22;13.40;;;3.27;;
5052;SDS011;2545;50.892;5.740;2023-07-13T05:51:48;11.77;;;3.60;;
5052;SDS011;2545;50.892;5.740;2023-07-13T05:54:13;14.73;;;3.80;;
5052;SDS011;2545;50.892;5.740;2023-07-13T05:56:38;11.13;;;3.73;;
5052;SDS011;2545;50.892;5.740;2023-07-13T05:59:04;12.23;;;4.40;;
5052;SDS011;2545;50.892;5.740;2023-07-13T06:01:30;28.33;;;4.27;;
5052;SDS011;2545;50.892;5.740;2023-07-13T06:03:56;14.60;;;3.87;;
5052;SDS011;2545;50.892;5.740;2023-07-13T06:06:21;14.90;;;4.03;;
5052;SDS011;2545;50.892;5.740;2023-07-13T06:08:47;17.50;;;4.47;;
5052;SDS011;2545;50.892;5.740;2023-07-13T06:11:14;20.80;;;5.80;;
5052;SDS011;2545;50.892;5.740;2023-07-13T06:13:39;18.37;;;4.40;;
5052;SDS011;2545;50.892;5.740;2023-07-13T06:16:05;17.40;;;4.43;;
5052;SDS011;2545;50.892;5.740;2023-07-13T06:18:31;18.37;;;5.83;;
5052;SDS011;2545;50.892;5.740;2023-07-13T06:20:57;11.17;;;4.80;;
5052;SDS011;2545;50.892;5.740;2023-07-13T06:23:23;14.40;;;5.13;;
5052;SDS011;2545;50.892;5.740;2023-07-13T06:25:49;23.67;;;5.10;;
5052;SDS011;2545;50.892;5.740;2023-07-13T06:28:14;10.90;;;4.07;;
5052;SDS011;2545;50.892;5.740;2023-07-13T06:30:40;17.33;;;4.83;;
5052;SDS011;2545;50.892;5.740;2023-07-13T06:33:06;15.50;;;4.77;;
5052;SDS011;2545;50.892;5.740;2023-07-13T06:35:31;20.57;;;5.27;;
5052;SDS011;2545;50.892;5.740;2023-07-13T06:37:57;19.93;;;5.80;;
5052;SDS011;2545;50.892;5.740;2023-07-13T06:40:22;20.03;;;4.80;;
5052;SDS011;2545;50.892;5.740;2023-07-13T06:42:47;13.13;;;4.20;;
5052;SDS011;2545;50.892;5.740;2023-07-13T06:45:13;15.23;;;4.30;;
5052;SDS011;2545;50.892;5.740;2023-07-13T06:47:39;14.13;;;4.87;;
5052;SDS011;2545;50.892;5.740;2023-07-13T06:50:04;12.17;;;3.60;;
5052;SDS011;2545;50.892;5.740;2023-07-13T06:52:30;12.33;;;4.23;;
5052;SDS011;2545;50.892;5.740;2023-07-13T06:54:55;12.73;;;4.43;;
5052;SDS011;2545;50.892;5.740;2023-07-13T06:57:21;18.10;;;4.07;;
5052;SDS011;2545;50.892;5.740;2023-07-13T06:59:46;25.63;;;5.57;;
5052;SDS011;2545;50.892;5.740;2023-07-13T07:02:12;23.93;;;4.23;;
5052;SDS011;2545;50.892;5.740;2023-07-13T07:04:37;7.23;;;3.60;;
5052;SDS011;2545;50.892;5.740;2023-07-13T07:07:03;16.53;;;5.30;;
5052;SDS011;2545;50.892;5.740;2023-07-13T07:09:29;11.63;;;4.30;;
5052;SDS011;2545;50.892;5.740;2023-07-13T07:11:56;7.27;;;4.23;;
5052;SDS011;2545;50.892;5.740;2023-07-13T07:14:22;11.50;;;4.57;;
5052;SDS011;2545;50.892;5.740;2023-07-13T07:16:48;10.33;;;4.30;;
5052;SDS011;2545;50.892;5.740;2023-07-13T07:19:15;14.80;;;3.97;;
5052;SDS011;2545;50.892;5.740;2023-07-13T07:21:40;17.80;;;4.47;;
5052;SDS011;2545;50.892;5.740;2023-07-13T07:24:06;17.00;;;4.50;;
5052;SDS011;2545;50.892;5.740;2023-07-13T07:26:32;11.90;;;4.57;;
5052;SDS011;2545;50.892;5.740;2023-07-13T07:28:58;13.50;;;4.83;;
5052;SDS011;2545;50.892;5.740;2023-07-13T07:31:23;15.70;;;4.63;;
5052;SDS011;2545;50.892;5.740;2023-07-13T07:33:48;27.27;;;4.13;;
5052;SDS011;2545;50.892;5.740;2023-07-13T07:36:15;22.13;;;4.37;;
5052;SDS011;2545;50.892;5.740;2023-07-13T07:38:41;20.03;;;5.00;;
5052;SDS011;2545;50.892;5.740;2023-07-13T07:41:07;17.70;;;4.17;;
5052;SDS011;2545;50.892;5.740;2023-07-13T07:43:32;19.63;;;4.20;;
5052;SDS011;2545;50.892;5.740;2023-07-13T07:45:58;16.33;;;4.70;;
5052;SDS011;2545;50.892;5.740;2023-07-13T07:48:24;12.23;;;3.77;;
5052;SDS011;2545;50.892;5.740;2023-07-13T07:50:49;18.43;;;5.50;;
5052;SDS011;2545;50.892;5.740;2023-07-13T07:53:14;22.67;;;4.33;;
5052;SDS011;2545;50.892;5.740;2023-07-13T07:55:40;16.93;;;4.37;;
5052;SDS011;2545;50.892;5.740;2023-07-13T07:58:06;18.57;;;4.57;;
5052;SDS011;2545;50.892;5.740;2023-07-13T08:00:32;15.03;;;4.43;;
5052;SDS011;2545;50.892;5.740;2023-07-13T08:02:58;21.63;;;4.63;;
5052;SDS011;2545;50.892;5.740;2023-07-13T08:05:25;23.93;;;4.10;;
5052;SDS011;2545;50.892;5.740;2023-07-13T08:07:51;14.20;;;3.97;;
5052;SDS011;2545;50.892;5.740;2023-07-13T08:10:16;10.03;;;3.97;;
5052;SDS011;2545;50.892;5.740;2023-07-13T08:12:42;21.60;;;4.87;;
5052;SDS011;2545;50.892;5.740;2023-07-13T08:15:09;20.40;;;5.43;;
5052;SDS011;2545;50.892;5.740;2023-07-13T08:17:37;26.23;;;5.37;;
5052;SDS011;2545;50.892;5.740;2023-07-13T08:20:02;21.10;;;4.30;;
5052;SDS011;2545;50.892;5.740;2023-07-13T08:22:28;21.53;;;4.30;;
5052;SDS011;2545;50.892;5.740;2023-07-13T08:24:54;20.67;;;3.70;;
5052;SDS011;2545;50.892;5.740;2023-07-13T08:27:22;19.00;;;4.90;;
5052;SDS011;2545;50.892;5.740;2023-07-13T08:29:48;20.17;;;4.50;;
5052;SDS011;2545;50.892;5.740;2023-07-13T08:32:14;14.37;;;4.87;;
5052;SDS011;2545;50.892;5.740;2023-07-13T08:34:39;8.63;;;3.23;;
5052;SDS011;2545;50.892;5.740;2023-07-13T08:37:05;16.87;;;4.63;;
5052;SDS011;2545;50.892;5.740;2023-07-13T08:39:32;21.77;;;4.80;;
5052;SDS011;2545;50.892;5.740;2023-07-13T08:41:59;11.60;;;4.10;;
5052;SDS011;2545;50.892;5.740;2023-07-13T08:47:10;11.37;;;3.03;;
5052;SDS011;2545;50.892;5.740;2023-07-13T08:49:38;12.30;;;4.17;;
5052;SDS011;2545;50.892;5.740;2023-07-13T08:52:10;12.67;;;4.60;;
5052;SDS011;2545;50.892;5.740;2023-07-13T08:54:54;11.33;;;4.80;;
5052;SDS011;2545;50.892;5.740;2023-07-13T08:57:24;10.27;;;4.17;;
5052;SDS011;2545;50.892;5.740;2023-07-13T08:59:56;13.00;;;3.70;;
5052;SDS011;2545;50.892;5.740;2023-07-13T09:02:34;18.07;;;4.20;;
5052;SDS011;2545;50.892;5.740;2023-07-13T09:05:11;21.23;;;4.43;;
5052;SDS011;2545;50.892;5.740;2023-07-13T09:10:32;10.47;;;4.03;;
5052;SDS011;2545;50.892;5.740;2023-07-13T09:15:50;12.87;;;3.43;;
5052;SDS011;2545;50.892;5.740;2023-07-13T09:23:41;7.87;;;3.40;;
5052;SDS011;2545;50.892;5.740;2023-07-13T09:26:25;11.93;;;3.37;;
5052;SDS011;2545;50.892;5.740;2023-07-13T09:28:56;20.77;;;3.17;;
5052;SDS011;2545;50.892;5.740;2023-07-13T09:31:30;9.77;;;3.47;;
5052;SDS011;2545;50.892;5.740;2023-07-13T09:34:00;10.13;;;3.30;;
5052;SDS011;2545;50.892;5.740;2023-07-13T09:36:27;13.27;;;3.43;;
5052;SDS011;2545;50.892;5.740;2023-07-13T09:41:49;13.40;;;3.33;;
5052;SDS011;2545;50.892;5.740;2023-07-13T09:46:56;11.70;;;3.20;;
5052;SDS011;2545;50.892;5.740;2023-07-13T09:49:26;10.70;;;2.73;;
5052;SDS011;2545;50.892;5.740;2023-07-13T09:52:00;24.87;;;3.70;;
5052;SDS011;2545;50.892;5.740;2023-07-13T09:54:32;13.03;;;3.00;;
5052;SDS011;2545;50.892;5.740;2023-07-13T09:56:59;8.33;;;2.97;;
5052;SDS011;2545;50.892;5.740;2023-07-13T09:59:29;12.63;;;3.40;;
5052;SDS011;2545;50.892;5.740;2023-07-13T10:01:58;9.27;;;3.20;;
5052;SDS011;2545;50.892;5.740;2023-07-13T10:04:41;12.57;;;3.30;;
5052;SDS011;2545;50.892;5.740;2023-07-13T10:07:08;11.20;;;3.80;;
5052;SDS011;2545;50.892;5.740;2023-07-13T10:09:38;12.70;;;4.07;;
5052;SDS011;2545;50.892;5.740;2023-07-13T10:12:04;13.83;;;3.30;;
5052;SDS011;2545;50.892;5.740;2023-07-13T10:14:38;9.10;;;2.97;;
5052;SDS011;2545;50.892;5.740;2023-07-13T10:17:04;6.33;;;2.60;;
5052;SDS011;2545;50.892;5.740;2023-07-13T10:19:34;8.47;;;2.60;;
5052;SDS011;2545;50.892;5.740;2023-07-13T10:22:01;9.50;;;3.40;;
5052;SDS011;2545;50.892;5.740;2023-07-13T10:24:35;6.40;;;2.40;;
5052;SDS011;2545;50.892;5.740;2023-07-13T10:27:14;14.50;;;3.50;;
5052;SDS011;2545;50.892;5.740;2023-07-13T10:30:14;7.80;;;2.77;;
5052;SDS011;2545;50.892;5.740;2023-07-13T10:32:45;7.63;;;2.47;;
5052;SDS011;2545;50.892;5.740;2023-07-13T10:35:12;6.20;;;2.70;;
5052;SDS011;2545;50.892;5.740;2023-07-13T10:37:41;9.40;;;3.20;;
5052;SDS011;2545;50.892;5.740;2023-07-13T10:40:12;13.67;;;3.00;;
5052;SDS011;2545;50.892;5.740;2023-07-13T10:42:42;7.13;;;2.90;;
5052;SDS011;2545;50.892;5.740;2023-07-13T10:45:16;6.30;;;3.20;;
5052;SDS011;2545;50.892;5.740;2023-07-13T10:47:43;9.77;;;3.30;;
5052;SDS011;2545;50.892;5.740;2023-07-13T10:50:14;8.27;;;2.90;;
5052;SDS011;2545;50.892;5.740;2023-07-13T10:52:47;9.90;;;2.30;;
5052;SDS011;2545;50.892;5.740;2023-07-13T10:57:59;19.07;;;2.73;;
5052;SDS011;2545;50.892;5.740;2023-07-13T11:00:26;13.33;;;2.80;;
5052;SDS011;2545;50.892;5.740;2023-07-13T11:02:56;4.17;;;1.90;;
5052;SDS011;2545;50.892;5.740;2023-07-13T11:05:26;8.37;;;2.40;;
5052;SDS011;2545;50.892;5.740;2023-07-13T11:07:56;20.23;;;3.47;;
5052;SDS011;2545;50.892;5.740;2023-07-13T11:10:55;7.40;;;2.20;;
5052;SDS011;2545;50.892;5.740;2023-07-13T11:16:57;9.43;;;2.30;;
5052;SDS011;2545;50.892;5.740;2023-07-13T11:24:58;6.27;;;2.43;;
5052;SDS011;2545;50.892;5.740;2023-07-13T11:27:36;5.53;;;2.90;;
5052;SDS011;2545;50.892;5.740;2023-07-13T11:30:25;8.00;;;2.40;;
5052;SDS011;2545;50.892;5.740;2023-07-13T11:33:04;6.37;;;2.77;;
5052;SDS011;2545;50.892;5.740;2023-07-13T11:38:50;5.30;;;2.03;;
5052;SDS011;2545;50.892;5.740;2023-07-13T11:41:34;6.00;;;2.20;;
5052;SDS011;2545;50.892;5.740;2023-07-13T11:44:13;10.57;;;2.30;;
5052;SDS011;2545;50.892;5.740;2023-07-13T11:46:48;7.23;;;2.60;;
5052;SDS011;2545;50.892;5.740;2023-07-13T11:49:26;7.60;;;2.80;;
5052;SDS011;2545;50.892;5.740;2023-07-13T11:51:55;10.03;;;3.40;;
5052;SDS011;2545;50.892;5.740;2023-07-13T11:54:29;5.30;;;2.70;;
5052;SDS011;2545;50.892;5.740;2023-07-13T11:56:59;7.90;;;3.03;;
5052;SDS011;2545;50.892;5.740;2023-07-13T11:59:31;4.73;;;2.70;;
5052;SDS011;2545;50.892;5.740;2023-07-13T12:01:58;7.97;;;2.40;;
5052;SDS011;2545;50.892;5.740;2023-07-13T12:07:14;3.73;;;1.93;;
5052;SDS011;2545;50.892;5.740;2023-07-13T12:09:42;11.47;;;2.70;;
5052;SDS011;2545;50.892;5.740;2023-07-13T12:12:11;6.73;;;2.43;;
5052;SDS011;2545;50.892;5.740;2023-07-13T12:14:39;8.20;;;2.60;;
5052;SDS011;2545;50.892;5.740;2023-07-13T12:17:08;10.37;;;3.27;;
5052;SDS011;2545;50.892;5.740;2023-07-13T12:19:37;8.13;;;2.67;;
5052;SDS011;2545;50.892;5.740;2023-07-13T12:22:03;6.17;;;2.43;;
5052;SDS011;2545;50.892;5.740;2023-07-13T12:24:29;5.43;;;2.53;;
5052;SDS011;2545;50.892;5.740;2023-07-13T12:26:58;9.80;;;2.87;;
5052;SDS011;2545;50.892;5.740;2023-07-13T12:29:26;4.67;;;2.00;;
5052;SDS011;2545;50.892;5.740;2023-07-13T12:31:51;12.00;;;4.10;;
5052;SDS011;2545;50.892;5.740;2023-07-13T12:34:21;8.17;;;2.50;;
5052;SDS011;2545;50.892;5.740;2023-07-13T12:37:00;6.53;;;2.57;;
5052;SDS011;2545;50.892;5.740;2023-07-13T12:39:35;6.63;;;2.13;;
5052;SDS011;2545;50.892;5.740;2023-07-13T12:44:49;5.63;;;2.30;;
5052;SDS011;2545;50.892;5.740;2023-07-13T12:47:15;7.73;;;2.17;;
5052;SDS011;2545;50.892;5.740;2023-07-13T12:49:47;7.70;;;2.70;;
5052;SDS011;2545;50.892;5.740;2023-07-13T12:52:22;15.47;;;2.67;;
5052;SDS011;2545;50.892;5.740;2023-07-13T12:54:59;10.90;;;2.40;;
5052;SDS011;2545;50.892;5.740;2023-07-13T12:57:30;3.53;;;2.43;;
5052;SDS011;2545;50.892;5.740;2023-07-13T12:59:55;11.23;;;2.23;;
5052;SDS011;2545;50.892;5.740;2023-07-13T13:04:57;6.63;;;1.70;;
5052;SDS011;2545;50.892;5.740;2023-07-13T13:07:24;3.60;;;1.83;;
5052;SDS011;2545;50.892;5.740;2023-07-13T13:09:50;4.93;;;2.03;;
5052;SDS011;2545;50.892;5.740;2023-07-13T13:12:16;7.00;;;2.97;;
5052;SDS011;2545;50.892;5.740;2023-07-13T13:14:42;7.10;;;2.37;;
5052;SDS011;2545;50.892;5.740;2023-07-13T13:17:16;9.10;;;2.47;;
5052;SDS011;2545;50.892;5.740;2023-07-13T13:19:54;5.67;;;2.10;;
5052;SDS011;2545;50.892;5.740;2023-07-13T13:22:20;9.03;;;2.50;;
5052;SDS011;2545;50.892;5.740;2023-07-13T13:24:46;7.10;;;1.80;;
5052;SDS011;2545;50.892;5.740;2023-07-13T13:27:19;5.57;;;2.20;;
5052;SDS011;2545;50.892;5.740;2023-07-13T13:29:48;5.03;;;1.97;;
5052;SDS011;2545;50.892;5.740;2023-07-13T13:32:16;11.67;;;2.17;;
5052;SDS011;2545;50.892;5.740;2023-07-13T13:34:44;5.63;;;2.07;;
5052;SDS011;2545;50.892;5.740;2023-07-13T13:37:16;5.10;;;2.23;;
5052;SDS011;2545;50.892;5.740;2023-07-13T13:39:44;6.70;;;1.90;;
5052;SDS011;2545;50.892;5.740;2023-07-13T13:42:10;4.10;;;1.90;;
5052;SDS011;2545;50.892;5.740;2023-07-13T13:44:36;2.90;;;1.73;;
5052;SDS011;2545;50.892;5.740;2023-07-13T13:47:02;5.60;;;2.10;;
5052;SDS011;2545;50.892;5.740;2023-07-13T13:49:28;6.50;;;1.87;;
5052;SDS011;2545;50.892;5.740;2023-07-13T13:51:55;6.00;;;1.87;;
5052;SDS011;2545;50.892;5.740;2023-07-13T13:54:22;4.17;;;1.80;;
5052;SDS011;2545;50.892;5.740;2023-07-13T13:56:50;6.60;;;2.13;;
5052;SDS011;2545;50.892;5.740;2023-07-13T13:59:17;12.63;;;2.50;;
5052;SDS011;2545;50.892;5.740;2023-07-13T14:01:44;22.57;;;1.97;;
5052;SDS011;2545;50.892;5.740;2023-07-13T14:04:28;4.97;;;2.33;;
5052;SDS011;2545;50.892;5.740;2023-07-13T14:06:54;3.40;;;1.77;;
5052;SDS011;2545;50.892;5.740;2023-07-13T14:09:19;7.80;;;1.87;;
5052;SDS011;2545;50.892;5.740;2023-07-13T14:11:45;8.43;;;1.80;;
5052;SDS011;2545;50.892;5.740;2023-07-13T14:14:19;6.30;;;2.33;;
5052;SDS011;2545;50.892;5.740;2023-07-13T14:16:47;4.03;;;1.90;;
5052;SDS011;2545;50.892;5.740;2023-07-13T14:19:18;6.57;;;2.00;;
5052;SDS011;2545;50.892;5.740;2023-07-13T14:21:44;6.73;;;2.00;;
5052;SDS011;2545;50.892;5.740;2023-07-13T14:24:10;8.80;;;2.37;;
5052;SDS011;2545;50.892;5.740;2023-07-13T14:26:36;5.37;;;2.30;;
5052;SDS011;2545;50.892;5.740;2023-07-13T14:29:04;5.70;;;2.17;;
5052;SDS011;2545;50.892;5.740;2023-07-13T14:31:36;8.57;;;2.67;;
5052;SDS011;2545;50.892;5.740;2023-07-13T14:34:02;7.30;;;2.87;;
5052;SDS011;2545;50.892;5.740;2023-07-13T14:36:40;7.00;;;2.17;;
5052;SDS011;2545;50.892;5.740;2023-07-13T14:39:12;10.37;;;2.53;;
5052;SDS011;2545;50.892;5.740;2023-07-13T14:41:41;7.13;;;2.53;;
5052;SDS011;2545;50.892;5.740;2023-07-13T14:44:10;4.77;;;2.23;;
5052;SDS011;2545;50.892;5.740;2023-07-13T14:46:40;3.53;;;2.23;;
5052;SDS011;2545;50.892;5.740;2023-07-13T14:52:19;8.43;;;2.97;;
5052;SDS011;2545;50.892;5.740;2023-07-13T14:54:46;6.80;;;2.60;;
5052;SDS011;2545;50.892;5.740;2023-07-13T14:57:15;9.60;;;3.10;;
5052;SDS011;2545;50.892;5.740;2023-07-13T14:59:42;7.67;;;2.53;;
5052;SDS011;2545;50.892;5.740;2023-07-13T15:02:14;7.20;;;2.93;;
5052;SDS011;2545;50.892;5.740;2023-07-13T15:04:40;6.80;;;2.30;;
5052;SDS011;2545;50.892;5.740;2023-07-13T15:07:07;6.23;;;2.53;;
5052;SDS011;2545;50.892;5.740;2023-07-13T15:09:36;5.97;;;3.10;;
5052;SDS011;2545;50.892;5.740;2023-07-13T15:12:01;7.00;;;2.70;;
5052;SDS011;2545;50.892;5.740;2023-07-13T15:14:27;6.43;;;2.67;;
5052;SDS011;2545;50.892;5.740;2023-07-13T15:16:54;4.57;;;2.60;;
5052;SDS011;2545;50.892;5.740;2023-07-13T15:19:21;5.27;;;2.23;;
5052;SDS011;2545;50.892;5.740;2023-07-13T15:21:48;6.40;;;3.00;;
5052;SDS011;2545;50.892;5.740;2023-07-13T15:24:15;9.20;;;2.90;;
5052;SDS011;2545;50.892;5.740;2023-07-13T15:26:40;4.10;;;2.07;;
5052;SDS011;2545;50.892;5.740;2023-07-13T15:29:10;3.80;;;2.20;;
5052;SDS011;2545;50.892;5.740;2023-07-13T15:31:36;4.20;;;2.00;;
5052;SDS011;2545;50.892;5.740;2023-07-13T15:34:03;4.50;;;2.17;;
5052;SDS011;2545;50.892;5.740;2023-07-13T15:36:34;6.80;;;2.13;;
5052;SDS011;2545;50.892;5.740;2023-07-13T15:39:00;7.10;;;2.27;;
5052;SDS011;2545;50.892;5.740;2023-07-13T15:41:27;3.60;;;2.30;;
5052;SDS011;2545;50.892;5.740;2023-07-13T15:43:56;5.73;;;2.47;;
5052;SDS011;2545;50.892;5.740;2023-07-13T15:46:23;7.10;;;2.00;;
5052;SDS011;2545;50.892;5.740;2023-07-13T15:48:50;6.23;;;2.80;;
5052;SDS011;2545;50.892;5.740;2023-07-13T15:53:55;5.23;;;2.20;;
5052;SDS011;2545;50.892;5.740;2023-07-13T15:56:25;9.17;;;2.43;;
5052;SDS011;2545;50.892;5.740;2023-07-13T15:58:52;2.97;;;2.00;;
5052;SDS011;2545;50.892;5.740;2023-07-13T16:01:18;6.97;;;2.10;;